createdAt,value
2018-12-18T00:03:19.516Z,1.30
2018-12-18T00:08:25.780Z,1.20
2018-12-18T00:13:30.033Z,1.20
2018-12-18T00:18:34.266Z,1.20
2018-12-18T00:23:38.358Z,1.20
2018-12-18T00:28:42.497Z,1.20
2018-12-18T00:33:46.592Z,1.20
2018-12-18T00:38:50.731Z,1.20
2018-12-18T00:43:54.844Z,1.20
2018-12-18T00:48:59.026Z,1.20
2018-12-18T00:54:03.116Z,1.20
2018-12-18T00:59:07.226Z,1.20
2018-12-18T01:04:11.319Z,1.30
2018-12-18T01:09:15.411Z,1.30
2018-12-18T01:14:20.405Z,1.20
2018-12-18T01:19:24.490Z,1.20
2018-12-18T01:24:28.863Z,1.20
2018-12-18T01:29:32.934Z,1.20
2018-12-18T01:34:37.010Z,1.20
2018-12-18T01:39:41.103Z,1.30
2018-12-18T01:44:45.210Z,1.30
2018-12-18T01:49:49.295Z,1.30
2018-12-18T01:54:53.399Z,1.20
2018-12-18T01:59:57.508Z,1.20
2018-12-18T02:05:01.605Z,1.20
2018-12-18T02:10:06.955Z,1.20
2018-12-18T02:15:11.059Z,1.30
2018-12-18T02:20:15.153Z,1.30
2018-12-18T02:25:19.241Z,1.30
2018-12-18T02:30:23.340Z,1.30
2018-12-18T02:35:27.425Z,1.30
2018-12-18T02:40:31.512Z,1.30
2018-12-18T02:45:35.684Z,1.20
2018-12-18T02:50:39.764Z,1.20
2018-12-18T02:55:43.856Z,1.20
2018-12-18T03:00:47.932Z,1.20
2018-12-18T03:05:52.035Z,1.30
2018-12-18T03:10:56.137Z,1.30
2018-12-18T03:16:00.251Z,1.20
2018-12-18T03:21:04.343Z,1.20
2018-12-18T03:26:08.461Z,1.20
2018-12-18T03:31:12.558Z,1.20
2018-12-18T03:36:16.687Z,1.30
2018-12-18T03:41:20.783Z,1.30
2018-12-18T03:46:24.876Z,1.30
2018-12-18T03:51:28.963Z,1.30
2018-12-18T03:56:33.073Z,1.30
2018-12-18T04:01:37.162Z,1.30
2018-12-18T04:06:41.379Z,1.30
2018-12-18T04:11:50.819Z,1.30
2018-12-18T04:16:54.932Z,1.30
2018-12-18T04:21:59.040Z,1.20
2018-12-18T04:27:03.242Z,1.20
2018-12-18T04:32:07.331Z,1.30
2018-12-18T04:37:12.562Z,1.30
2018-12-18T04:42:16.739Z,1.40
2018-12-18T04:47:20.859Z,1.40
2018-12-18T04:52:24.979Z,1.30
2018-12-18T04:57:29.098Z,1.30
2018-12-18T05:02:34.580Z,1.30
2018-12-18T05:07:39.699Z,1.30
2018-12-18T05:12:44.959Z,1.40
2018-12-18T05:17:50.174Z,1.40
2018-12-18T05:22:54.742Z,1.40
2018-12-18T05:27:59.933Z,1.50
2018-12-18T05:33:04.101Z,1.50
2018-12-18T05:38:10.251Z,1.40
2018-12-18T05:43:14.349Z,1.40
2018-12-18T05:48:19.338Z,1.40
2018-12-18T05:53:23.434Z,1.40
2018-12-18T05:58:27.531Z,1.50
2018-12-18T06:03:31.703Z,1.50
2018-12-18T06:08:35.798Z,1.50
2018-12-18T06:13:39.914Z,1.50
2018-12-18T06:18:44.021Z,1.50
2018-12-18T06:23:48.139Z,-0.80
2018-12-18T06:28:52.415Z,1.50
2018-12-18T06:33:56.579Z,1.40
2018-12-18T06:44:04.372Z,1.40
2018-12-18T06:49:08.497Z,1.40
2018-12-18T06:54:12.609Z,1.40
2018-12-18T06:59:16.693Z,1.40
2018-12-18T07:04:20.775Z,1.40
2018-12-18T07:09:24.866Z,1.40
2018-12-18T07:14:29.000Z,1.40
2018-12-18T07:19:33.219Z,1.40
2018-12-18T07:24:37.315Z,1.40
2018-12-18T07:39:48.958Z,1.50
2018-12-18T07:44:53.042Z,1.50
2018-12-18T07:49:57.147Z,1.50
2018-12-18T07:55:02.355Z,1.60
2018-12-18T08:00:06.719Z,1.60
2018-12-18T08:10:15.275Z,1.70
2018-12-18T08:15:19.374Z,1.70
2018-12-18T08:20:23.496Z,1.70
2018-12-18T08:25:27.590Z,1.70
2018-12-18T08:30:31.691Z,1.80
2018-12-18T08:35:36.637Z,1.80
2018-12-18T08:40:40.998Z,1.90
2018-12-18T08:45:45.099Z,1.90
2018-12-18T08:50:49.327Z,1.90
2018-12-18T09:00:57.363Z,1.80
2018-12-18T09:06:01.470Z,1.80
2018-12-18T09:11:05.562Z,1.90
2018-12-18T09:16:15.210Z,2.00
2018-12-18T09:21:19.317Z,2.00
2018-12-18T09:26:23.447Z,2.00
2018-12-18T09:31:27.634Z,2.20
2018-12-18T09:36:31.744Z,2.20
2018-12-18T09:41:39.830Z,2.30
2018-12-18T09:46:44.095Z,2.30
2018-12-18T09:51:48.194Z,2.50
2018-12-18T09:56:52.271Z,2.70
2018-12-18T10:01:56.418Z,3.50
2018-12-18T10:07:00.530Z,3.80
2018-12-18T10:12:04.877Z,3.80
2018-12-18T10:17:09.090Z,3.50
2018-12-18T10:47:31.930Z,3.10
2018-12-18T10:57:42.966Z,3.10
2018-12-18T11:53:31.450Z,2.90
2018-12-18T12:03:39.250Z,2.70
2018-12-18T12:13:49.111Z,2.70
2018-12-18T12:23:58.231Z,2.80
2018-12-18T12:44:15.888Z,2.80
2018-12-18T13:34:56.898Z,2.70
2018-12-18T14:10:23.463Z,2.60
2018-12-18T14:20:31.387Z,2.60
2018-12-18T14:40:46.567Z,2.60
2018-12-18T15:41:34.009Z,2.50
2018-12-18T16:17:03.101Z,2.50
2018-12-18T16:37:22.958Z,2.50
2018-12-18T17:28:08.897Z,2.20
2018-12-18T18:28:58.362Z,1.90
2018-12-18T22:52:40.615Z,-0.10
2018-12-18T23:07:54.275Z,-0.30
2018-12-18T23:48:28.097Z,-0.30
2018-12-18T23:58:35.890Z,-0.40
